createdAt,value
2018-06-12T00:00:48.451Z,19.36
2018-06-12T00:03:16.942Z,19.34
2018-06-12T00:05:45.327Z,19.29
2018-06-12T00:08:13.736Z,19.28
2018-06-12T00:10:42.276Z,19.24
2018-06-12T00:13:10.848Z,19.14
2018-06-12T00:15:39.358Z,19.15
2018-06-12T00:18:07.920Z,19.11
2018-06-12T00:20:36.349Z,19.08
2018-06-12T00:23:04.877Z,18.99
2018-06-12T00:25:33.341Z,18.88
2018-06-12T00:28:01.795Z,18.87
2018-06-12T00:30:30.218Z,18.87
2018-06-12T00:32:58.668Z,18.83
2018-06-12T00:35:27.150Z,18.82
2018-06-12T00:37:55.665Z,18.75
2018-06-12T00:40:24.113Z,18.68
2018-06-12T00:42:52.546Z,18.69
2018-06-12T00:45:21.024Z,18.64
2018-06-12T00:47:49.438Z,18.60
2018-06-12T00:50:17.884Z,18.58
2018-06-12T00:52:46.337Z,18.54
2018-06-12T00:55:14.859Z,18.50
2018-06-12T00:57:43.269Z,18.49
2018-06-12T01:00:11.747Z,18.43
2018-06-12T01:02:40.236Z,18.33
2018-06-12T01:05:08.992Z,18.30
2018-06-12T01:07:37.407Z,18.28
2018-06-12T01:10:06.562Z,18.20
2018-06-12T01:12:35.206Z,18.22
2018-06-12T01:15:03.663Z,18.14
2018-06-12T01:17:32.169Z,18.20
2018-06-12T01:20:01.402Z,18.15
2018-06-12T01:22:30.224Z,18.13
2018-06-12T01:24:58.893Z,18.06
2018-06-12T01:27:27.451Z,18.04
2018-06-12T01:29:56.016Z,18.03
2018-06-12T01:32:24.581Z,17.97
2018-06-12T01:34:53.715Z,17.97
2018-06-12T01:37:22.648Z,17.81
2018-06-12T01:39:51.098Z,17.75
2018-06-12T01:42:19.584Z,17.80
2018-06-12T01:44:48.061Z,17.79
2018-06-12T01:47:16.519Z,17.76
2018-06-12T01:49:45.078Z,17.71
2018-06-12T01:52:13.561Z,17.65
2018-06-12T01:54:42.058Z,17.59
2018-06-12T01:57:10.618Z,17.55
2018-06-12T01:59:39.092Z,17.54
2018-06-12T02:02:07.549Z,17.34
2018-06-12T02:04:36.179Z,17.33
2018-06-12T02:07:06.567Z,17.31
2018-06-12T02:09:35.019Z,17.35
2018-06-12T02:12:03.477Z,17.32
2018-06-12T02:14:32.280Z,17.23
2018-06-12T02:17:00.769Z,17.02
2018-06-12T02:19:29.227Z,17.13
2018-06-12T02:21:57.883Z,17.10
2018-06-12T02:24:27.411Z,17.13
2018-06-12T02:26:56.015Z,17.12
2018-06-12T02:29:24.519Z,17.08
2018-06-12T02:31:53.174Z,17.12
2018-06-12T02:34:21.640Z,17.09
2018-06-12T02:36:50.312Z,17.10
2018-06-12T02:39:19.035Z,17.08
2018-06-12T02:41:47.622Z,17.07
2018-06-12T02:44:16.099Z,17.00
2018-06-12T02:46:44.658Z,17.00
2018-06-12T02:49:13.494Z,16.97
2018-06-12T02:51:42.009Z,16.97
2018-06-12T02:54:10.571Z,16.98
2018-06-12T02:56:39.292Z,16.92
2018-06-12T02:59:07.839Z,16.86
2018-06-12T03:01:36.354Z,16.84
2018-06-12T03:04:04.955Z,16.77
2018-06-12T03:06:33.629Z,16.76
2018-06-12T03:09:02.119Z,16.78
2018-06-12T03:11:30.613Z,16.76
2018-06-12T03:13:59.110Z,16.74
2018-06-12T03:16:27.724Z,16.61
2018-06-12T03:18:56.249Z,16.64
2018-06-12T03:21:24.729Z,16.63
2018-06-12T03:23:53.335Z,16.55
2018-06-12T03:26:21.898Z,16.56
2018-06-12T03:28:50.367Z,16.56
2018-06-12T03:31:18.856Z,16.49
2018-06-12T03:33:47.338Z,16.46
2018-06-12T03:36:15.864Z,16.50
2018-06-12T03:38:44.421Z,16.50
2018-06-12T03:41:12.961Z,16.52
2018-06-12T03:43:41.399Z,16.56
2018-06-12T03:46:09.930Z,16.58
2018-06-12T03:48:38.499Z,16.61
2018-06-12T03:51:07.733Z,16.62
2018-06-12T03:53:36.321Z,16.60
2018-06-12T03:56:05.446Z,16.59
2018-06-12T03:58:34.110Z,16.59
2018-06-12T04:01:02.755Z,16.60
2018-06-12T04:03:31.333Z,16.60
2018-06-12T04:05:59.912Z,16.59
2018-06-12T04:08:28.455Z,16.63
2018-06-12T04:10:57.050Z,16.61
2018-06-12T04:13:26.136Z,16.63
2018-06-12T04:15:54.615Z,16.63
2018-06-12T04:18:23.278Z,16.58
2018-06-12T04:20:51.831Z,16.66
2018-06-12T04:23:20.414Z,16.67
2018-06-12T04:25:48.975Z,16.80
2018-06-12T04:28:17.528Z,16.80
2018-06-12T04:30:46.985Z,16.73
2018-06-12T04:33:15.642Z,16.74
2018-06-12T04:35:44.910Z,16.75
2018-06-12T04:38:13.484Z,16.72
2018-06-12T04:40:42.172Z,16.71
2018-06-12T04:43:10.757Z,16.75
2018-06-12T04:45:39.271Z,16.80
2018-06-12T04:48:07.832Z,16.84
2018-06-12T04:50:36.321Z,16.85
2018-06-12T04:53:05.057Z,16.86
2018-06-12T04:55:33.528Z,16.86
2018-06-12T04:58:02.055Z,16.96
2018-06-12T05:00:30.611Z,17.05
2018-06-12T05:02:59.158Z,17.00
2018-06-12T05:05:27.741Z,17.07
2018-06-12T05:07:56.290Z,17.07
2018-06-12T05:10:24.766Z,17.10
2018-06-12T05:12:53.355Z,17.05
2018-06-12T05:15:23.061Z,17.13
2018-06-12T05:17:51.695Z,17.17
2018-06-12T05:20:20.346Z,17.17
2018-06-12T05:22:48.915Z,17.12
2018-06-12T05:25:17.506Z,17.14
2018-06-12T05:27:46.228Z,17.24
2018-06-12T05:30:14.813Z,17.23
2018-06-12T05:32:43.327Z,17.29
2018-06-12T05:35:11.873Z,17.39
2018-06-12T05:37:40.545Z,17.51
2018-06-12T05:40:09.081Z,17.48
2018-06-12T05:42:37.598Z,17.57
2018-06-12T05:45:06.161Z,17.65
2018-06-12T05:47:34.707Z,17.87
2018-06-12T05:50:03.297Z,17.98
2018-06-12T05:52:31.730Z,18.11
2018-06-12T05:55:00.224Z,18.24
2018-06-12T05:57:28.665Z,18.36
2018-06-12T05:59:57.197Z,18.64
2018-06-12T06:02:25.648Z,18.82
2018-06-12T06:04:54.148Z,18.98
2018-06-12T06:07:22.669Z,19.36
2018-06-12T06:09:51.096Z,19.52
2018-06-12T06:12:19.616Z,19.79
2018-06-12T06:14:48.196Z,19.87
2018-06-12T06:17:16.689Z,20.01
2018-06-12T06:19:46.110Z,20.00
2018-06-12T06:22:14.664Z,20.03
2018-06-12T06:24:43.179Z,19.84
2018-06-12T06:27:11.677Z,19.95
2018-06-12T06:29:40.226Z,19.90
2018-06-12T06:32:08.682Z,19.98
2018-06-12T06:34:37.114Z,19.70
2018-06-12T06:37:05.659Z,19.89
2018-06-12T06:39:34.112Z,19.83
2018-06-12T06:42:02.559Z,19.66
2018-06-12T06:44:31.216Z,19.49
2018-06-12T06:46:59.665Z,19.45
2018-06-12T06:49:28.076Z,19.52
2018-06-12T06:51:56.559Z,19.48
2018-06-12T06:54:25.111Z,19.33
2018-06-12T06:56:53.620Z,19.29
2018-06-12T06:59:22.164Z,19.42
2018-06-12T07:01:50.611Z,19.61
2018-06-12T07:04:19.022Z,19.58
2018-06-12T07:06:47.532Z,19.46
2018-06-12T07:09:16.071Z,19.67
2018-06-12T07:11:44.508Z,19.49
2018-06-12T07:14:13.143Z,19.27
2018-06-12T07:16:41.563Z,19.53
2018-06-12T07:19:10.113Z,19.82
2018-06-12T07:21:38.781Z,19.78
2018-06-12T07:24:07.690Z,19.91
2018-06-12T07:26:36.692Z,19.88
2018-06-12T07:29:05.388Z,20.50
2018-06-12T07:31:33.959Z,20.68
2018-06-12T07:34:02.486Z,20.64
2018-06-12T07:36:31.022Z,20.90
2018-06-12T07:38:59.498Z,22.24
2018-06-12T07:41:27.959Z,22.40
2018-06-12T07:43:56.821Z,21.78
2018-06-12T07:46:25.238Z,21.63
2018-06-12T07:48:53.632Z,22.13
2018-06-12T07:51:22.143Z,22.37
2018-06-12T07:53:50.700Z,22.78
2018-06-12T07:56:19.881Z,22.81
2018-06-12T07:58:48.532Z,22.56
2018-06-12T08:01:17.048Z,23.36
2018-06-12T08:03:45.525Z,22.62
2018-06-12T08:06:13.903Z,22.80
2018-06-12T08:08:43.110Z,22.53
2018-06-12T08:11:11.963Z,22.45
2018-06-12T08:13:40.423Z,23.44
2018-06-12T08:16:08.878Z,24.42
2018-06-12T08:18:37.367Z,24.85
2018-06-12T08:21:05.710Z,24.28
2018-06-12T08:23:34.135Z,24.13
2018-06-12T08:26:02.540Z,24.92
2018-06-12T08:28:31.476Z,25.34
2018-06-12T08:31:00.032Z,25.83
2018-06-12T08:33:28.461Z,26.30
2018-06-12T08:35:58.028Z,26.02
2018-06-12T08:38:26.448Z,25.96
2018-06-12T08:40:54.858Z,25.39
2018-06-12T08:43:23.230Z,25.25
2018-06-12T08:45:51.616Z,24.61
2018-06-12T08:48:20.308Z,24.80
2018-06-12T08:50:48.851Z,25.13
2018-06-12T08:53:17.897Z,24.59
2018-06-12T08:55:46.361Z,25.24
2018-06-12T08:58:14.756Z,25.38
2018-06-12T09:00:43.164Z,24.50
2018-06-12T09:03:11.633Z,24.47
2018-06-12T09:05:40.054Z,24.32
2018-06-12T09:08:08.511Z,24.43
2018-06-12T09:10:36.947Z,24.42
2018-06-12T09:13:05.358Z,23.79
2018-06-12T09:15:33.803Z,23.65
2018-06-12T09:18:02.244Z,23.35
2018-06-12T09:20:30.628Z,23.08
2018-06-12T09:22:59.003Z,23.20
2018-06-12T09:25:27.388Z,24.11
2018-06-12T09:27:55.817Z,24.31
2018-06-12T09:30:24.288Z,24.62
2018-06-12T09:32:52.732Z,24.60
2018-06-12T09:35:21.175Z,24.24
2018-06-12T09:37:49.590Z,24.83
2018-06-12T09:40:17.985Z,24.76
2018-06-12T09:42:46.564Z,24.74
2018-06-12T09:45:15.007Z,25.46
2018-06-12T09:47:43.474Z,25.52
2018-06-12T09:50:12.436Z,27.08
2018-06-12T09:52:40.936Z,27.38
2018-06-12T09:55:09.373Z,27.78
2018-06-12T09:57:37.856Z,27.73
2018-06-12T10:00:07.415Z,27.15
2018-06-12T10:02:35.942Z,27.07
2018-06-12T10:05:04.994Z,27.24
2018-06-12T10:07:33.391Z,26.95
2018-06-12T10:10:01.768Z,28.22
2018-06-12T10:12:30.212Z,28.83
2018-06-12T10:14:58.693Z,27.42
2018-06-12T10:17:27.147Z,27.44
2018-06-12T10:19:55.666Z,27.43
2018-06-12T10:22:24.101Z,26.44
2018-06-12T10:24:52.606Z,26.00
2018-06-12T10:27:21.931Z,26.81
2018-06-12T10:29:50.393Z,26.78
2018-06-12T10:32:19.611Z,25.94
2018-06-12T10:34:48.482Z,25.37
2018-06-12T10:37:16.952Z,25.30
2018-06-12T10:39:45.361Z,26.29
2018-06-12T10:42:13.719Z,26.29
2018-06-12T10:44:42.153Z,26.40
2018-06-12T10:47:10.561Z,25.72
2018-06-12T10:49:38.958Z,25.60
2018-06-12T10:52:07.389Z,25.37
2018-06-12T10:54:35.857Z,24.96
2018-06-12T10:57:04.273Z,24.74
2018-06-12T10:59:32.819Z,24.60
2018-06-12T11:02:01.229Z,24.30
2018-06-12T11:04:30.033Z,24.32
2018-06-12T11:06:58.501Z,24.13
2018-06-12T11:09:26.977Z,24.05
2018-06-12T11:11:55.526Z,23.77
2018-06-12T11:14:33.982Z,23.93
2018-06-12T11:17:04.879Z,23.36
2018-06-12T11:19:33.307Z,23.47
2018-06-12T11:22:01.793Z,23.73
2018-06-12T11:24:30.322Z,23.32
2018-06-12T11:26:58.868Z,23.21
2018-06-12T11:29:28.730Z,23.31
2018-06-12T11:31:57.309Z,23.13
2018-06-12T11:34:25.790Z,23.01
2018-06-12T11:36:54.219Z,22.92
2018-06-12T11:39:22.582Z,22.48
2018-06-12T11:41:51.084Z,22.63
2018-06-12T11:44:20.152Z,22.45
2018-06-12T11:46:48.564Z,22.26
2018-06-12T11:49:16.970Z,22.09
2018-06-12T11:51:45.374Z,22.18
2018-06-12T11:54:14.049Z,22.16
2018-06-12T11:56:42.567Z,22.16
2018-06-12T11:59:11.014Z,22.05
2018-06-12T12:01:39.525Z,21.97
2018-06-12T12:04:07.910Z,22.06
2018-06-12T12:06:36.378Z,22.00
2018-06-12T12:09:07.789Z,21.85
2018-06-12T12:11:36.859Z,22.02
2018-06-12T12:14:05.909Z,22.09
2018-06-12T12:16:34.854Z,22.23
2018-06-12T12:19:03.733Z,22.18
2018-06-12T12:21:32.210Z,22.18
2018-06-12T12:24:00.634Z,22.04
2018-06-12T12:26:29.130Z,22.04
2018-06-12T12:28:57.539Z,22.11
2018-06-12T12:31:25.980Z,21.95
2018-06-12T12:33:54.973Z,21.97
2018-06-12T12:36:23.374Z,21.99
2018-06-12T12:38:51.885Z,21.93
2018-06-12T12:41:20.271Z,21.81
2018-06-12T12:43:49.452Z,21.80
2018-06-12T12:46:17.860Z,21.81
2018-06-12T12:48:46.340Z,21.68
2018-06-12T12:51:14.913Z,21.65
2018-06-12T12:53:43.361Z,21.58
2018-06-12T12:56:11.959Z,21.65
2018-06-12T12:58:40.799Z,21.72
2018-06-12T13:01:09.191Z,21.72
2018-06-12T13:03:37.569Z,21.68
2018-06-12T13:06:06.291Z,21.73
2018-06-12T13:08:34.736Z,21.79
2018-06-12T13:11:03.280Z,21.87
2018-06-12T13:13:32.269Z,21.75
2018-06-12T13:16:00.800Z,21.63
2018-06-12T13:18:29.374Z,21.59
2018-06-12T13:20:58.439Z,21.65
2018-06-12T13:23:26.905Z,21.66
2018-06-12T13:25:55.355Z,21.69
2018-06-12T13:28:23.816Z,21.68
2018-06-12T13:30:52.303Z,21.83
2018-06-12T13:33:20.879Z,21.85
2018-06-12T13:35:49.402Z,21.88
2018-06-12T13:38:17.829Z,21.79
2018-06-12T13:40:46.253Z,21.83
2018-06-12T13:43:14.713Z,21.82
2018-06-12T13:45:43.854Z,21.66
2018-06-12T13:48:12.298Z,21.61
2018-06-12T13:50:40.768Z,21.55
2018-06-12T13:53:09.235Z,21.55
2018-06-12T13:55:37.735Z,21.55
2018-06-12T13:58:06.243Z,21.60
2018-06-12T14:00:34.706Z,21.58
2018-06-12T14:03:03.120Z,21.62
2018-06-12T14:05:31.635Z,21.65
2018-06-12T14:08:00.991Z,21.62
2018-06-12T14:10:29.448Z,21.59
2018-06-12T14:12:58.720Z,21.55
2018-06-12T14:15:27.306Z,21.53
2018-06-12T14:17:56.281Z,21.46
2018-06-12T14:20:24.703Z,21.30
2018-06-12T14:22:53.269Z,21.40
2018-06-12T14:25:21.687Z,21.32
2018-06-12T14:27:50.225Z,21.41
2018-06-12T14:30:18.693Z,21.46
2018-06-12T14:32:47.151Z,21.44
2018-06-12T14:35:15.531Z,21.40
2018-06-12T14:37:44.369Z,21.42
2018-06-12T14:40:12.931Z,21.37
2018-06-12T14:42:41.404Z,21.44
2018-06-12T14:45:10.411Z,21.46
2018-06-12T14:47:38.834Z,21.56
2018-06-12T14:50:07.302Z,21.70
2018-06-12T14:52:36.205Z,21.78
2018-06-12T14:55:04.848Z,21.76
2018-06-12T14:57:33.315Z,21.68
2018-06-12T15:00:01.801Z,21.67
2018-06-12T15:02:30.211Z,21.79
2018-06-12T15:04:58.863Z,21.81
2018-06-12T15:07:27.308Z,21.82
2018-06-12T15:09:56.059Z,21.85
2018-06-12T15:14:52.004Z,21.96
2018-06-12T15:17:20.450Z,21.90
2018-06-12T15:19:48.961Z,21.87
2018-06-12T15:22:17.342Z,21.82
2018-06-12T15:24:45.822Z,21.77
2018-06-12T15:27:14.516Z,21.77
2018-06-12T15:29:42.993Z,21.81
2018-06-12T15:32:12.215Z,21.80
2018-06-12T15:34:40.669Z,21.78
2018-06-12T15:37:09.022Z,21.69
2018-06-12T15:39:37.470Z,21.66
2018-06-12T15:42:05.920Z,21.59
2018-06-12T15:44:34.404Z,21.59
2018-06-12T15:47:02.849Z,21.54
2018-06-12T15:49:31.321Z,21.56
2018-06-12T15:51:59.701Z,21.53
2018-06-12T15:54:28.115Z,21.53
2018-06-12T15:56:56.532Z,21.52
2018-06-12T15:59:25.071Z,21.37
2018-06-12T16:01:53.495Z,21.36
2018-06-12T16:04:22.244Z,21.35
2018-06-12T16:06:51.270Z,21.38
2018-06-12T16:09:19.694Z,21.38
2018-06-12T16:11:48.094Z,21.34
2018-06-12T16:14:16.584Z,21.26
2018-06-12T16:16:45.784Z,21.29
2018-06-12T16:19:14.306Z,21.30
2018-06-12T16:21:42.823Z,21.23
2018-06-12T16:24:12.586Z,21.24
2018-06-12T16:26:41.164Z,21.21
2018-06-12T16:29:09.823Z,21.13
2018-06-12T16:31:38.368Z,21.11
2018-06-12T16:34:06.987Z,21.14
2018-06-12T16:36:35.511Z,21.11
2018-06-12T16:39:04.559Z,21.10
2018-06-12T16:41:33.009Z,21.08
2018-06-12T16:44:02.117Z,21.12
2018-06-12T16:46:32.187Z,21.15
2018-06-12T16:49:01.877Z,21.18
2018-06-12T16:51:30.836Z,21.19
2018-06-12T16:53:59.340Z,21.21
2018-06-12T16:56:28.036Z,21.20
2018-06-12T16:58:56.384Z,21.19
2018-06-12T17:01:32.579Z,21.22
2018-06-12T17:04:01.169Z,21.19
2018-06-12T17:06:29.938Z,21.10
2018-06-12T17:08:59.369Z,21.09
2018-06-12T17:11:28.050Z,21.06
2018-06-12T17:13:56.670Z,21.11
2018-06-12T17:16:25.274Z,21.08
2018-06-12T17:18:54.360Z,21.11
2018-06-12T17:21:22.992Z,21.13
2018-06-12T17:23:51.983Z,21.11
2018-06-12T17:26:20.754Z,20.99
2018-06-12T17:28:49.319Z,21.02
2018-06-12T17:31:18.369Z,21.00
2018-06-12T17:33:47.434Z,20.97
2018-06-12T17:36:16.793Z,20.90
2018-06-12T17:38:46.339Z,20.91
2018-06-12T17:41:15.748Z,20.94
2018-06-12T17:43:44.435Z,20.92
2018-06-12T17:46:12.917Z,20.95
2018-06-12T17:48:41.671Z,20.89
2018-06-12T17:51:10.218Z,20.91
2018-06-12T17:53:38.826Z,20.88
2018-06-12T17:56:07.493Z,20.86
2018-06-12T17:58:39.158Z,20.83
2018-06-12T18:01:08.408Z,20.84
2018-06-12T18:03:36.960Z,20.79
2018-06-12T18:06:05.625Z,20.77
2018-06-12T18:08:34.177Z,20.73
2018-06-12T18:11:02.741Z,20.63
2018-06-12T18:13:31.853Z,20.58
2018-06-12T18:16:00.363Z,20.55
2018-06-12T18:18:28.905Z,20.54
2018-06-12T18:20:57.385Z,20.48
2018-06-12T18:23:25.765Z,20.38
2018-06-12T18:25:54.147Z,20.30
2018-06-12T18:28:22.567Z,20.28
2018-06-12T18:30:51.046Z,20.13
2018-06-12T18:33:19.504Z,20.15
2018-06-12T18:35:47.965Z,20.06
2018-06-12T18:38:16.367Z,20.03
2018-06-12T18:40:44.727Z,19.97
2018-06-12T18:43:13.352Z,19.86
2018-06-12T18:45:41.809Z,19.88
2018-06-12T18:48:10.242Z,19.82
2018-06-12T18:50:38.855Z,19.79
2018-06-12T18:53:07.405Z,19.75
2018-06-12T18:55:35.902Z,19.67
2018-06-12T18:58:04.328Z,19.66
2018-06-12T19:00:33.759Z,19.61
2018-06-12T19:03:02.220Z,19.57
2018-06-12T19:05:30.775Z,19.47
2018-06-12T19:07:59.215Z,19.45
2018-06-12T19:10:27.629Z,19.45
2018-06-12T19:12:56.247Z,19.38
2018-06-12T19:15:24.696Z,19.33
2018-06-12T19:17:53.140Z,19.23
2018-06-12T19:20:21.557Z,19.17
2018-06-12T19:22:50.136Z,19.16
2018-06-12T19:25:18.836Z,19.12
2018-06-12T19:27:47.420Z,19.13
2018-06-12T19:30:15.968Z,19.08
2018-06-12T19:32:44.557Z,19.05
2018-06-12T19:35:13.166Z,18.99
2018-06-12T19:37:41.680Z,18.97
2018-06-12T19:40:10.227Z,18.91
2018-06-12T19:42:38.715Z,18.91
2018-06-12T19:45:07.334Z,18.84
2018-06-12T19:47:35.919Z,18.83
2018-06-12T19:50:04.706Z,18.77
2018-06-12T19:52:33.879Z,18.77
2018-06-12T19:55:03.602Z,18.75
2018-06-12T19:57:32.739Z,18.67
2018-06-12T20:00:02.810Z,18.60
2018-06-12T20:02:32.435Z,18.59
2018-06-12T20:05:00.994Z,18.55
2018-06-12T20:07:29.590Z,18.58
2018-06-12T20:09:58.160Z,18.50
2018-06-12T20:12:27.350Z,18.43
2018-06-12T20:14:55.966Z,18.36
2018-06-12T20:17:24.693Z,18.36
2018-06-12T20:19:54.480Z,18.32
2018-06-12T20:22:22.932Z,18.33
2018-06-12T20:24:51.553Z,18.31
2018-06-12T20:27:20.080Z,18.33
2018-06-12T20:29:48.910Z,18.27
2018-06-12T20:32:17.819Z,18.26
2018-06-12T20:34:46.479Z,18.28
2018-06-12T20:37:15.338Z,18.28
2018-06-12T20:39:43.842Z,18.20
2018-06-12T20:42:12.330Z,18.20
2018-06-12T20:44:40.882Z,18.20
2018-06-12T20:47:09.467Z,18.15
2018-06-12T20:49:37.964Z,18.09
2018-06-12T20:52:06.538Z,18.13
2018-06-12T20:54:35.122Z,18.15
2018-06-12T20:57:03.616Z,18.12
2018-06-12T20:59:32.117Z,18.11
2018-06-12T21:02:00.681Z,18.08
2018-06-12T21:04:29.275Z,18.11
2018-06-12T21:06:58.003Z,18.08
2018-06-12T21:09:26.474Z,18.12
2018-06-12T21:11:55.105Z,18.11
2018-06-12T21:14:23.688Z,18.06
2018-06-12T21:16:52.274Z,18.07
2018-06-12T21:19:20.746Z,18.07
2018-06-12T21:21:49.337Z,18.07
2018-06-12T21:24:17.863Z,18.08
2018-06-12T21:26:46.486Z,18.06
2018-06-12T21:29:15.117Z,18.03
2018-06-12T21:31:44.113Z,18.01
2018-06-12T21:34:12.671Z,18.05
2018-06-12T21:36:41.519Z,18.02
2018-06-12T21:39:09.964Z,18.03
2018-06-12T21:41:38.498Z,18.02
2018-06-12T21:44:08.051Z,18.03
2018-06-12T21:46:36.668Z,18.06
2018-06-12T21:49:05.153Z,18.05
2018-06-12T21:51:33.596Z,18.08
2018-06-12T21:54:02.040Z,18.04
2018-06-12T21:56:30.574Z,18.06
2018-06-12T21:58:59.133Z,18.04
2018-06-12T22:01:27.744Z,18.05
2018-06-12T22:03:57.624Z,18.05
2018-06-12T22:06:26.249Z,18.05
2018-06-12T22:08:54.856Z,18.06
2018-06-12T22:11:23.432Z,18.07
2018-06-12T22:13:51.964Z,18.06
2018-06-12T22:16:23.280Z,18.09
2018-06-12T22:18:52.252Z,18.11
2018-06-12T22:21:20.847Z,18.09
2018-06-12T22:23:49.275Z,18.12
2018-06-12T22:26:17.826Z,18.08
2018-06-12T22:28:46.303Z,18.07
2018-06-12T22:31:14.865Z,18.07
2018-06-12T22:33:43.492Z,18.09
2018-06-12T22:36:11.932Z,18.10
2018-06-12T22:38:40.416Z,18.10
2018-06-12T22:41:08.946Z,18.08
2018-06-12T22:43:37.377Z,18.07
2018-06-12T22:46:05.961Z,18.08
2018-06-12T22:48:34.475Z,18.08
2018-06-12T22:51:02.952Z,18.10
2018-06-12T22:53:31.515Z,18.09
2018-06-12T22:55:59.992Z,18.09
2018-06-12T22:58:28.443Z,18.05
2018-06-12T23:00:57.007Z,18.04
2018-06-12T23:03:25.539Z,18.07
2018-06-12T23:05:53.995Z,18.07
2018-06-12T23:08:22.526Z,18.05
2018-06-12T23:10:50.948Z,18.06
2018-06-12T23:13:19.464Z,18.06
2018-06-12T23:15:47.912Z,18.06
2018-06-12T23:18:16.452Z,18.05
2018-06-12T23:20:56.232Z,18.05
2018-06-12T23:23:24.726Z,18.03
2018-06-12T23:25:53.268Z,17.99
2018-06-12T23:28:21.747Z,18.02
2018-06-12T23:30:51.215Z,18.03
2018-06-12T23:33:19.654Z,17.99
2018-06-12T23:35:48.287Z,18.02
2018-06-12T23:38:16.822Z,17.99
2018-06-12T23:40:45.378Z,17.94
2018-06-12T23:43:14.468Z,17.92
2018-06-12T23:45:42.987Z,17.89
2018-06-12T23:48:11.571Z,17.87
2018-06-12T23:50:40.058Z,17.86
2018-06-12T23:53:08.546Z,17.87
2018-06-12T23:55:37.013Z,17.88
2018-06-12T23:58:05.808Z,17.86
